sensor_id;sensor_type;location;lat;lon;timestamp;pressure;altitude;pressure_sealevel;temperature;humidity
28344;BME280;15597;50.914;6.638;2023-12-20T00:00:20;100759.97;;;11.21;63.99
28344;BME280;15597;50.914;6.638;2023-12-20T00:02:45;100763.50;;;11.20;63.98
28344;BME280;15597;50.914;6.638;2023-12-20T00:05:13;100775.72;;;11.19;64.19
28344;BME280;15597;50.914;6.638;2023-12-20T00:07:39;100761.72;;;11.20;64.06
28344;BME280;15597;50.914;6.638;2023-12-20T00:10:05;100766.97;;;11.20;64.19
28344;BME280;15597;50.914;6.638;2023-12-20T00:12:31;100768.72;;;11.20;64.26
28344;BME280;15597;50.914;6.638;2023-12-20T00:14:56;100769.63;;;11.19;64.09
28344;BME280;15597;50.914;6.638;2023-12-20T00:17:22;100780.94;;;11.19;63.96
28344;BME280;15597;50.914;6.638;2023-12-20T00:19:47;100771.34;;;11.20;64.29
28344;BME280;15597;50.914;6.638;2023-12-20T00:22:13;100766.13;;;11.20;64.34
28344;BME280;15597;50.914;6.638;2023-12-20T00:24:38;100764.34;;;11.20;64.36
28344;BME280;15597;50.914;6.638;2023-12-20T00:27:04;100770.47;;;11.19;64.31
28344;BME280;15597;50.914;6.638;2023-12-20T00:29:29;100774.88;;;11.19;64.54
28344;BME280;15597;50.914;6.638;2023-12-20T00:31:55;100770.47;;;11.19;64.38
28344;BME280;15597;50.914;6.638;2023-12-20T00:34:21;100781.00;;;11.16;64.34
28344;BME280;15597;50.914;6.638;2023-12-20T00:36:46;100775.78;;;11.16;64.28
28344;BME280;15597;50.914;6.638;2023-12-20T00:39:12;100770.59;;;11.13;64.34
28344;BME280;15597;50.914;6.638;2023-12-20T00:41:38;100775.06;;;11.08;64.23
28344;BME280;15597;50.914;6.638;2023-12-20T00:44:04;100776.81;;;11.07;64.29
28344;BME280;15597;50.914;6.638;2023-12-20T00:46:29;100783.88;;;11.04;nan
28344;BME280;15597;50.914;6.638;2023-12-20T00:48:55;100781.34;;;11.01;64.09
28344;BME280;15597;50.914;6.638;2023-12-20T00:51:20;100795.31;;;11.00;64.27
28344;BME280;15597;50.914;6.638;2023-12-20T00:53:46;100800.63;;;10.96;64.47
28344;BME280;15597;50.914;6.638;2023-12-20T00:56:14;100797.16;;;10.94;64.27
28344;BME280;15597;50.914;6.638;2023-12-20T00:58:40;100798.94;;;10.92;64.55
28344;BME280;15597;50.914;6.638;2023-12-20T01:01:05;100793.78;;;10.89;64.67
28344;BME280;15597;50.914;6.638;2023-12-20T01:03:31;100807.75;;;10.88;64.31
28344;BME280;15597;50.914;6.638;2023-12-20T01:05:56;100801.69;;;10.86;64.31
28344;BME280;15597;50.914;6.638;2023-12-20T01:08:22;100802.59;;;10.85;64.65
28344;BME280;15597;50.914;6.638;2023-12-20T01:10:48;100816.56;;;10.84;64.51
28344;BME280;15597;50.914;6.638;2023-12-20T01:13:13;100826.19;;;10.82;64.35
28344;BME280;15597;50.914;6.638;2023-12-20T01:15:39;100816.63;;;10.81;64.37
28344;BME280;15597;50.914;6.638;2023-12-20T01:18:05;100810.56;;;10.77;64.80
28344;BME280;15597;50.914;6.638;2023-12-20T01:20:30;100808.84;;;10.76;64.69
28344;BME280;15597;50.914;6.638;2023-12-20T01:22:56;100809.78;;;10.74;65.01
28344;BME280;15597;50.914;6.638;2023-12-20T01:25:21;100808.06;;;10.73;64.49
28344;BME280;15597;50.914;6.638;2023-12-20T01:27:47;100803.72;;;10.72;64.40
28344;BME280;15597;50.914;6.638;2023-12-20T01:30:12;100809.00;;;10.69;64.31
28344;BME280;15597;50.914;6.638;2023-12-20T01:32:38;100818.63;;;10.66;64.32
28344;BME280;15597;50.914;6.638;2023-12-20T01:35:03;100825.72;;;10.61;64.34
28344;BME280;15597;50.914;6.638;2023-12-20T01:37:29;100824.06;;;10.56;64.05
28344;BME280;15597;50.914;6.638;2023-12-20T01:39:55;100830.22;;;10.51;64.20
28344;BME280;15597;50.914;6.638;2023-12-20T01:42:20;100839.88;;;10.48;64.27
28344;BME280;15597;50.914;6.638;2023-12-20T01:44:47;100832.97;;;10.44;64.17
28344;BME280;15597;50.914;6.638;2023-12-20T01:47:13;100846.09;;;10.41;64.37
28344;BME280;15597;50.914;6.638;2023-12-20T01:49:39;100862.69;;;10.40;64.44
28344;BME280;15597;50.914;6.638;2023-12-20T01:52:05;100860.97;;;10.35;64.05
28344;BME280;15597;50.914;6.638;2023-12-20T01:54:31;100858.41;;;10.32;64.12
28344;BME280;15597;50.914;6.638;2023-12-20T01:56:57;100854.16;;;10.27;64.47
28344;BME280;15597;50.914;6.638;2023-12-20T01:59:22;100852.38;;;10.27;64.00
28344;BME280;15597;50.914;6.638;2023-12-20T02:01:48;100861.13;;;10.26;64.26
28344;BME280;15597;50.914;6.638;2023-12-20T02:04:14;100867.22;;;10.25;63.66
28344;BME280;15597;50.914;6.638;2023-12-20T02:06:40;100875.97;;;10.26;64.24
28344;BME280;15597;50.914;6.638;2023-12-20T02:09:08;100868.06;;;10.27;64.06
28344;BME280;15597;50.914;6.638;2023-12-20T02:11:34;100871.53;;;10.29;63.45
28344;BME280;15597;50.914;6.638;2023-12-20T02:14:00;100878.50;;;10.30;63.90
28344;BME280;15597;50.914;6.638;2023-12-20T02:16:27;100876.75;;;10.29;63.59
28344;BME280;15597;50.914;6.638;2023-12-20T02:18:53;100869.81;;;10.28;63.28
28344;BME280;15597;50.914;6.638;2023-12-20T02:21:33;100869.84;;;10.25;63.06
28344;BME280;15597;50.914;6.638;2023-12-20T02:24:00;100871.63;;;10.23;63.22
28344;BME280;15597;50.914;6.638;2023-12-20T02:26:25;100872.56;;;10.20;63.57
28344;BME280;15597;50.914;6.638;2023-12-20T02:28:51;100875.22;;;10.16;63.23
28344;BME280;15597;50.914;6.638;2023-12-20T02:31:21;100879.63;;;10.14;63.37
28344;BME280;15597;50.914;6.638;2023-12-20T02:33:46;100878.72;;;10.15;63.56
28344;BME280;15597;50.914;6.638;2023-12-20T02:36:12;100872.59;;;10.16;63.66
28344;BME280;15597;50.914;6.638;2023-12-20T02:38:37;100880.47;;;10.16;64.20
28344;BME280;15597;50.914;6.638;2023-12-20T02:41:03;100878.72;;;10.15;63.55
28344;BME280;15597;50.914;6.638;2023-12-20T02:43:28;100873.44;;;10.18;63.32
28344;BME280;15597;50.914;6.638;2023-12-20T02:45:54;100882.13;;;10.20;63.50
28344;BME280;15597;50.914;6.638;2023-12-20T02:48:19;100876.06;;;10.19;63.31
28344;BME280;15597;50.914;6.638;2023-12-20T02:50:46;100880.41;;;10.19;63.71
28344;BME280;15597;50.914;6.638;2023-12-20T02:53:14;100876.91;;;10.20;63.51
28344;BME280;15597;50.914;6.638;2023-12-20T02:55:40;100887.38;;;10.20;63.56
28344;BME280;15597;50.914;6.638;2023-12-20T02:58:06;100889.97;;;10.21;63.66
28344;BME280;15597;50.914;6.638;2023-12-20T03:00:31;100887.38;;;10.20;63.49
28344;BME280;15597;50.914;6.638;2023-12-20T03:02:57;100883.00;;;10.20;63.46
28344;BME280;15597;50.914;6.638;2023-12-20T03:05:24;100889.97;;;10.20;63.79
28344;BME280;15597;50.914;6.638;2023-12-20T03:07:50;100880.41;;;10.19;63.79
28344;BME280;15597;50.914;6.638;2023-12-20T03:10:15;100875.22;;;10.16;63.85
28344;BME280;15597;50.914;6.638;2023-12-20T03:12:41;100877.88;;;10.14;63.63
28344;BME280;15597;50.914;6.638;2023-12-20T03:15:07;100883.09;;;10.14;63.81
28344;BME280;15597;50.914;6.638;2023-12-20T03:17:32;100878.72;;;10.15;63.55
28344;BME280;15597;50.914;6.638;2023-12-20T03:19:58;100877.88;;;10.13;64.16
28344;BME280;15597;50.914;6.638;2023-12-20T03:22:23;100885.72;;;10.13;63.59
28344;BME280;15597;50.914;6.638;2023-12-20T03:24:49;100883.97;;;10.15;64.32
28344;BME280;15597;50.914;6.638;2023-12-20T03:27:14;100889.19;;;10.15;63.52
28344;BME280;15597;50.914;6.638;2023-12-20T03:29:40;100880.50;;;10.13;63.59
28344;BME280;15597;50.914;6.638;2023-12-20T03:32:05;100884.00;;;10.12;64.18
28344;BME280;15597;50.914;6.638;2023-12-20T03:34:31;100885.72;;;10.13;64.29
28344;BME280;15597;50.914;6.638;2023-12-20T03:36:56;100887.47;;;10.14;64.30
28344;BME280;15597;50.914;6.638;2023-12-20T03:39:22;100880.50;;;10.13;63.52
28344;BME280;15597;50.914;6.638;2023-12-20T03:41:47;100874.44;;;10.12;63.83
28344;BME280;15597;50.914;6.638;2023-12-20T03:44:13;100868.31;;;10.12;63.82
28344;BME280;15597;50.914;6.638;2023-12-20T03:46:39;100868.31;;;10.12;63.67
28344;BME280;15597;50.914;6.638;2023-12-20T03:49:04;100868.31;;;10.12;63.55
28344;BME280;15597;50.914;6.638;2023-12-20T03:51:29;100866.59;;;10.11;63.47
28344;BME280;15597;50.914;6.638;2023-12-20T03:53:55;100857.91;;;10.10;64.10
28344;BME280;15597;50.914;6.638;2023-12-20T03:56:20;100857.06;;;10.06;64.12
28344;BME280;15597;50.914;6.638;2023-12-20T03:58:46;100864.03;;;10.07;63.74
28344;BME280;15597;50.914;6.638;2023-12-20T04:01:11;100857.94;;;10.05;63.81
28344;BME280;15597;50.914;6.638;2023-12-20T04:03:38;100871.88;;;10.07;63.62
28344;BME280;15597;50.914;6.638;2023-12-20T04:06:04;100872.75;;;10.08;63.74
28344;BME280;15597;50.914;6.638;2023-12-20T04:08:30;100879.69;;;10.09;63.54
28344;BME280;15597;50.914;6.638;2023-12-20T04:10:55;100874.47;;;10.07;64.01
28344;BME280;15597;50.914;6.638;2023-12-20T04:13:21;100873.59;;;10.08;63.41
28344;BME280;15597;50.914;6.638;2023-12-20T04:15:46;100862.28;;;10.05;64.10
28344;BME280;15597;50.914;6.638;2023-12-20T04:18:12;100848.38;;;10.04;63.36
28344;BME280;15597;50.914;6.638;2023-12-20T04:20:37;100856.22;;;10.04;63.78
28344;BME280;15597;50.914;6.638;2023-12-20T04:23:03;100868.41;;;10.05;64.38
28344;BME280;15597;50.914;6.638;2023-12-20T04:25:28;100863.13;;;10.07;63.58
28344;BME280;15597;50.914;6.638;2023-12-20T04:27:54;100861.41;;;10.09;63.73
28344;BME280;15597;50.914;6.638;2023-12-20T04:30:19;100857.00;;;10.09;63.85
28344;BME280;15597;50.914;6.638;2023-12-20T04:32:45;100864.91;;;10.06;63.99
28344;BME280;15597;50.914;6.638;2023-12-20T04:35:10;100869.28;;;10.04;64.28
28344;BME280;15597;50.914;6.638;2023-12-20T04:37:36;100880.59;;;10.05;64.32
28344;BME280;15597;50.914;6.638;2023-12-20T04:40:01;100873.69;;;10.01;63.41
28344;BME280;15597;50.914;6.638;2023-12-20T04:42:27;100881.53;;;10.01;63.64
28344;BME280;15597;50.914;6.638;2023-12-20T04:44:53;100886.75;;;10.02;63.43
28344;BME280;15597;50.914;6.638;2023-12-20T04:47:18;100886.75;;;10.01;64.04
28344;BME280;15597;50.914;6.638;2023-12-20T04:49:44;100884.19;;;9.99;63.53
28344;BME280;15597;50.914;6.638;2023-12-20T04:52:09;100876.34;;;9.98;64.07
28344;BME280;15597;50.914;6.638;2023-12-20T04:54:35;100877.22;;;9.98;63.88
28344;BME280;15597;50.914;6.638;2023-12-20T04:57:00;100881.56;;;9.98;64.27
28344;BME280;15597;50.914;6.638;2023-12-20T04:59:26;100872.84;;;9.99;62.94
28344;BME280;15597;50.914;6.638;2023-12-20T05:01:51;100882.47;;;9.98;63.65
28344;BME280;15597;50.914;6.638;2023-12-20T05:04:17;100881.53;;;10.01;63.93
28344;BME280;15597;50.914;6.638;2023-12-20T05:06:43;100890.25;;;10.00;63.93
28344;BME280;15597;50.914;6.638;2023-12-20T05:09:08;100892.00;;;10.01;63.93
28344;BME280;15597;50.914;6.638;2023-12-20T05:11:34;100888.53;;;10.00;63.83
28344;BME280;15597;50.914;6.638;2023-12-20T05:13:59;100880.69;;;10.00;63.92
28344;BME280;15597;50.914;6.638;2023-12-20T05:16:25;100883.31;;;9.99;63.88
28344;BME280;15597;50.914;6.638;2023-12-20T05:18:51;100885.03;;;10.00;63.44
28344;BME280;15597;50.914;6.638;2023-12-20T05:21:17;100883.28;;;10.00;63.47
28344;BME280;15597;50.914;6.638;2023-12-20T05:23:43;100892.06;;;9.96;63.65
28344;BME280;15597;50.914;6.638;2023-12-20T05:26:08;100885.13;;;9.93;63.13
28344;BME280;15597;50.914;6.638;2023-12-20T05:28:34;100895.56;;;9.95;63.90
28344;BME280;15597;50.914;6.638;2023-12-20T05:30:59;100892.97;;;9.95;63.20
28344;BME280;15597;50.914;6.638;2023-12-20T05:33:25;100892.06;;;9.94;63.40
28344;BME280;15597;50.914;6.638;2023-12-20T05:35:51;100889.47;;;9.94;63.48
28344;BME280;15597;50.914;6.638;2023-12-20T05:38:16;100889.47;;;9.94;63.99
28344;BME280;15597;50.914;6.638;2023-12-20T05:40:42;100894.72;;;9.93;63.57
28344;BME280;15597;50.914;6.638;2023-12-20T05:43:07;100893.00;;;9.92;63.78
28344;BME280;15597;50.914;6.638;2023-12-20T05:45:33;100888.63;;;9.94;63.45
28344;BME280;15597;50.914;6.638;2023-12-20T05:47:58;100884.22;;;9.96;63.44
28344;BME280;15597;50.914;6.638;2023-12-20T05:50:24;100888.56;;;9.97;63.74
28344;BME280;15597;50.914;6.638;2023-12-20T05:52:49;100884.19;;;9.99;63.55
28344;BME280;15597;50.914;6.638;2023-12-20T05:55:16;100880.66;;;10.02;63.55
28344;BME280;15597;50.914;6.638;2023-12-20T05:57:41;100881.53;;;10.01;63.87
28344;BME280;15597;50.914;6.638;2023-12-20T06:00:09;100877.19;;;10.01;63.92
28344;BME280;15597;50.914;6.638;2023-12-20T06:02:39;100877.22;;;9.98;63.32
28344;BME280;15597;50.914;6.638;2023-12-20T06:05:05;100886.78;;;9.99;63.96
28344;BME280;15597;50.914;6.638;2023-12-20T06:07:30;100887.69;;;9.98;63.77
28344;BME280;15597;50.914;6.638;2023-12-20T06:10:08;100895.53;;;9.98;64.05
28344;BME280;15597;50.914;6.638;2023-12-20T06:12:34;100891.19;;;9.97;63.97
28344;BME280;15597;50.914;6.638;2023-12-20T06:15:02;100890.25;;;10.01;63.68
28344;BME280;15597;50.914;6.638;2023-12-20T06:17:27;100893.75;;;10.00;63.33
28344;BME280;15597;50.914;6.638;2023-12-20T06:19:55;100879.81;;;10.00;64.05
28344;BME280;15597;50.914;6.638;2023-12-20T06:22:21;100886.75;;;10.01;63.35
28344;BME280;15597;50.914;6.638;2023-12-20T06:24:46;100894.63;;;9.99;63.25
28344;BME280;15597;50.914;6.638;2023-12-20T06:27:12;100893.75;;;9.99;63.65
28344;BME280;15597;50.914;6.638;2023-12-20T06:29:38;100898.13;;;9.98;63.17
28344;BME280;15597;50.914;6.638;2023-12-20T06:32:04;100891.19;;;9.96;63.29
28344;BME280;15597;50.914;6.638;2023-12-20T06:34:30;100891.22;;;9.94;63.86
28344;BME280;15597;50.914;6.638;2023-12-20T06:36:55;100892.97;;;9.95;63.98
28344;BME280;15597;50.914;6.638;2023-12-20T06:39:21;100899.91;;;9.96;63.54
28344;BME280;15597;50.914;6.638;2023-12-20T06:41:46;100897.31;;;9.96;63.96
28344;BME280;15597;50.914;6.638;2023-12-20T06:44:11;100885.06;;;9.97;63.72
28344;BME280;15597;50.914;6.638;2023-12-20T06:46:37;100896.41;;;9.97;63.38
28344;BME280;15597;50.914;6.638;2023-12-20T06:49:03;100894.63;;;9.99;63.95
28344;BME280;15597;50.914;6.638;2023-12-20T06:51:29;100901.59;;;10.00;63.83
28344;BME280;15597;50.914;6.638;2023-12-20T06:53:56;100901.59;;;10.00;63.49
28344;BME280;15597;50.914;6.638;2023-12-20T06:56:22;100905.06;;;10.02;63.49
28344;BME280;15597;50.914;6.638;2023-12-20T06:58:47;100901.56;;;10.03;63.27
28344;BME280;15597;50.914;6.638;2023-12-20T07:01:13;100912.03;;;10.02;63.19
28344;BME280;15597;50.914;6.638;2023-12-20T07:03:40;100904.22;;;10.00;63.86
28344;BME280;15597;50.914;6.638;2023-12-20T07:06:08;100902.56;;;9.93;64.04
28344;BME280;15597;50.914;6.638;2023-12-20T07:08:33;100903.47;;;9.92;63.44
28344;BME280;15597;50.914;6.638;2023-12-20T07:10:59;100895.63;;;9.92;63.98
28344;BME280;15597;50.914;6.638;2023-12-20T07:13:25;100903.41;;;9.95;64.05
28344;BME280;15597;50.914;6.638;2023-12-20T07:15:50;100901.63;;;9.97;63.88
28344;BME280;15597;50.914;6.638;2023-12-20T07:18:16;100903.38;;;9.98;63.72
28344;BME280;15597;50.914;6.638;2023-12-20T07:20:42;100903.38;;;9.98;63.41
28344;BME280;15597;50.914;6.638;2023-12-20T07:23:08;100901.63;;;9.97;63.50
28344;BME280;15597;50.914;6.638;2023-12-20T07:25:34;100899.91;;;9.94;63.53
28344;BME280;15597;50.914;6.638;2023-12-20T07:27:59;100894.69;;;9.96;63.87
28344;BME280;15597;50.914;6.638;2023-12-20T07:30:25;100897.25;;;9.98;63.21
28344;BME280;15597;50.914;6.638;2023-12-20T07:32:50;100900.75;;;9.98;63.55
28344;BME280;15597;50.914;6.638;2023-12-20T07:35:17;100907.72;;;9.99;63.06
28344;BME280;15597;50.914;6.638;2023-12-20T07:37:43;100892.91;;;9.98;63.13
28344;BME280;15597;50.914;6.638;2023-12-20T07:40:09;100905.09;;;9.99;63.19
28344;BME280;15597;50.914;6.638;2023-12-20T07:42:34;100898.16;;;9.97;63.69
28344;BME280;15597;50.914;6.638;2023-12-20T07:44:59;100893.84;;;9.94;62.93
28344;BME280;15597;50.914;6.638;2023-12-20T07:47:25;100903.47;;;9.92;63.41
28344;BME280;15597;50.914;6.638;2023-12-20T07:49:51;100897.34;;;9.93;63.33
28344;BME280;15597;50.914;6.638;2023-12-20T07:52:20;100898.19;;;9.95;63.40
28344;BME280;15597;50.914;6.638;2023-12-20T07:54:48;100898.22;;;9.92;63.14
28344;BME280;15597;50.914;6.638;2023-12-20T07:57:13;100905.19;;;9.91;63.21
28344;BME280;15597;50.914;6.638;2023-12-20T07:59:39;100897.44;;;9.87;62.91
28344;BME280;15597;50.914;6.638;2023-12-20T08:02:04;100899.16;;;9.88;62.97
28344;BME280;15597;50.914;6.638;2023-12-20T08:04:30;100892.19;;;9.87;63.14
28344;BME280;15597;50.914;6.638;2023-12-20T08:06:55;100900.03;;;9.87;63.39
28344;BME280;15597;50.914;6.638;2023-12-20T08:09:21;100897.38;;;9.88;63.48
28344;BME280;15597;50.914;6.638;2023-12-20T08:11:47;100904.38;;;9.88;63.56
28344;BME280;15597;50.914;6.638;2023-12-20T08:14:13;100888.69;;;9.88;63.23
28344;BME280;15597;50.914;6.638;2023-12-20T08:16:38;100906.13;;;9.89;63.46
28344;BME280;15597;50.914;6.638;2023-12-20T08:19:04;100911.34;;;9.89;63.23
28344;BME280;15597;50.914;6.638;2023-12-20T08:21:30;100910.50;;;9.87;63.24
28344;BME280;15597;50.914;6.638;2023-12-20T08:23:55;100899.16;;;9.86;63.10
28344;BME280;15597;50.914;6.638;2023-12-20T08:26:21;100906.13;;;9.89;63.08
28344;BME280;15597;50.914;6.638;2023-12-20T08:28:48;100901.78;;;9.88;63.55
28344;BME280;15597;50.914;6.638;2023-12-20T08:31:17;100900.03;;;9.87;63.24
28344;BME280;15597;50.914;6.638;2023-12-20T08:33:44;100901.72;;;9.89;63.18
28344;BME280;15597;50.914;6.638;2023-12-20T08:36:11;100904.34;;;9.89;63.14
28344;BME280;15597;50.914;6.638;2023-12-20T08:38:36;100901.69;;;9.94;63.50
28344;BME280;15597;50.914;6.638;2023-12-20T08:41:03;100904.25;;;9.96;62.94
28344;BME280;15597;50.914;6.638;2023-12-20T08:43:36;100907.75;;;9.96;63.30
28344;BME280;15597;50.914;6.638;2023-12-20T08:46:02;100903.38;;;9.98;63.00
28344;BME280;15597;50.914;6.638;2023-12-20T08:48:28;100913.78;;;10.01;63.08
28344;BME280;15597;50.914;6.638;2023-12-20T08:50:53;100917.25;;;10.02;63.34
28344;BME280;15597;50.914;6.638;2023-12-20T08:53:19;100922.47;;;10.03;62.77
28344;BME280;15597;50.914;6.638;2023-12-20T08:55:45;100917.25;;;10.03;63.15
28344;BME280;15597;50.914;6.638;2023-12-20T08:58:11;100919.81;;;10.05;63.49
28344;BME280;15597;50.914;6.638;2023-12-20T09:00:36;100912.91;;;10.02;63.12
28344;BME280;15597;50.914;6.638;2023-12-20T09:03:02;100926.81;;;10.03;63.30
28344;BME280;15597;50.914;6.638;2023-12-20T09:05:29;100924.19;;;10.03;62.87
28344;BME280;15597;50.914;6.638;2023-12-20T09:07:55;100926.81;;;10.04;62.78
28344;BME280;15597;50.914;6.638;2023-12-20T09:10:21;100916.34;;;10.04;63.45
28344;BME280;15597;50.914;6.638;2023-12-20T09:12:50;100931.16;;;10.05;63.15
28344;BME280;15597;50.914;6.638;2023-12-20T09:15:15;100930.25;;;10.08;62.87
28344;BME280;15597;50.914;6.638;2023-12-20T09:17:41;100922.44;;;10.06;63.18
28344;BME280;15597;50.914;6.638;2023-12-20T09:20:07;100915.44;;;10.08;62.75
28344;BME280;15597;50.914;6.638;2023-12-20T09:22:34;100911.09;;;10.07;62.95
28344;BME280;15597;50.914;6.638;2023-12-20T09:24:59;100911.91;;;10.09;63.04
28344;BME280;15597;50.914;6.638;2023-12-20T09:27:25;100916.25;;;10.11;62.78
28344;BME280;15597;50.914;6.638;2023-12-20T09:29:51;100910.19;;;10.08;62.74
28344;BME280;15597;50.914;6.638;2023-12-20T09:32:17;100904.97;;;10.08;62.81
28344;BME280;15597;50.914;6.638;2023-12-20T09:34:42;100907.59;;;10.07;63.20
28344;BME280;15597;50.914;6.638;2023-12-20T09:37:08;100901.47;;;10.09;63.14
28344;BME280;15597;50.914;6.638;2023-12-20T09:39:33;100900.63;;;10.09;63.29
28344;BME280;15597;50.914;6.638;2023-12-20T09:42:03;100883.22;;;10.06;62.77
28344;BME280;15597;50.914;6.638;2023-12-20T09:44:30;100898.00;;;10.07;62.89
28344;BME280;15597;50.914;6.638;2023-12-20T09:46:57;100904.13;;;10.08;62.61
28344;BME280;15597;50.914;6.638;2023-12-20T09:49:23;100906.75;;;10.06;62.78
28344;BME280;15597;50.914;6.638;2023-12-20T09:51:52;100902.34;;;10.07;62.56
28344;BME280;15597;50.914;6.638;2023-12-20T09:54:18;100899.75;;;10.07;63.01
28344;BME280;15597;50.914;6.638;2023-12-20T09:56:44;100904.13;;;10.08;62.88
28344;BME280;15597;50.914;6.638;2023-12-20T09:59:09;100899.75;;;10.08;62.88
28344;BME280;15597;50.914;6.638;2023-12-20T10:01:35;100905.81;;;10.11;62.34
28344;BME280;15597;50.914;6.638;2023-12-20T10:04:05;100907.56;;;10.08;62.52
28344;BME280;15597;50.914;6.638;2023-12-20T10:06:36;100909.34;;;10.08;62.90
28344;BME280;15597;50.914;6.638;2023-12-20T10:09:01;100906.69;;;10.09;63.23
28344;BME280;15597;50.914;6.638;2023-12-20T10:11:27;100907.56;;;10.08;63.05
28344;BME280;15597;50.914;6.638;2023-12-20T10:13:59;100908.41;;;10.11;63.32
28344;BME280;15597;50.914;6.638;2023-12-20T10:16:28;100908.38;;;10.14;63.21
28344;BME280;15597;50.914;6.638;2023-12-20T10:18:55;100907.44;;;10.18;62.41
28344;BME280;15597;50.914;6.638;2023-12-20T10:21:22;100903.97;;;10.17;62.86
28344;BME280;15597;50.914;6.638;2023-12-20T10:23:48;100899.59;;;10.18;62.62
28344;BME280;15597;50.914;6.638;2023-12-20T10:26:22;100887.41;;;10.17;62.31
28344;BME280;15597;50.914;6.638;2023-12-20T10:28:59;100892.66;;;10.17;62.19
28344;BME280;15597;50.914;6.638;2023-12-20T10:31:33;100896.19;;;10.13;63.17
28344;BME280;15597;50.914;6.638;2023-12-20T10:34:01;100886.56;;;10.15;63.04
28344;BME280;15597;50.914;6.638;2023-12-20T10:36:29;100885.69;;;10.16;62.90
28344;BME280;15597;50.914;6.638;2023-12-20T10:38:56;100884.78;;;10.18;62.85
28344;BME280;15597;50.914;6.638;2023-12-20T10:41:25;100871.72;;;10.17;63.04
28344;BME280;15597;50.914;6.638;2023-12-20T10:43:59;100878.69;;;10.18;62.90
28344;BME280;15597;50.914;6.638;2023-12-20T10:46:26;100874.34;;;10.18;62.52
28344;BME280;15597;50.914;6.638;2023-12-20T10:48:55;100870.00;;;10.16;62.88
28344;BME280;15597;50.914;6.638;2023-12-20T10:51:22;100866.44;;;10.20;62.77
28344;BME280;15597;50.914;6.638;2023-12-20T10:53:48;100876.00;;;10.21;62.48
28344;BME280;15597;50.914;6.638;2023-12-20T10:56:18;100873.41;;;10.21;62.57
28344;BME280;15597;50.914;6.638;2023-12-20T10:58:45;100868.16;;;10.21;62.71
28344;BME280;15597;50.914;6.638;2023-12-20T11:01:19;100875.13;;;10.22;62.52
28344;BME280;15597;50.914;6.638;2023-12-20T11:03:50;100872.56;;;10.20;62.23
28344;BME280;15597;50.914;6.638;2023-12-20T11:06:40;100874.34;;;10.18;62.19
28344;BME280;15597;50.914;6.638;2023-12-20T11:09:20;100874.34;;;10.17;62.28
28344;BME280;15597;50.914;6.638;2023-12-20T11:17:12;100872.59;;;10.16;63.02
28344;BME280;15597;50.914;6.638;2023-12-20T11:22:30;100861.25;;;10.17;62.70
28344;BME280;15597;50.914;6.638;2023-12-20T11:25:09;100858.59;;;10.20;62.42
28344;BME280;15597;50.914;6.638;2023-12-20T11:27:36;100858.59;;;10.20;63.10
28344;BME280;15597;50.914;6.638;2023-12-20T11:30:06;100857.72;;;10.21;62.83
28344;BME280;15597;50.914;6.638;2023-12-20T11:32:35;100854.22;;;10.22;62.85
28344;BME280;15597;50.914;6.638;2023-12-20T11:37:38;100845.47;;;10.23;63.06
28344;BME280;15597;50.914;6.638;2023-12-20T11:40:11;100837.56;;;10.26;62.76
28344;BME280;15597;50.914;6.638;2023-12-20T11:42:49;100845.47;;;10.23;62.53
28344;BME280;15597;50.914;6.638;2023-12-20T11:45:18;100852.38;;;10.27;62.41
28344;BME280;15597;50.914;6.638;2023-12-20T11:47:48;100844.53;;;10.27;62.45
28344;BME280;15597;50.914;6.638;2023-12-20T11:50:20;100845.44;;;10.26;62.67
28344;BME280;15597;50.914;6.638;2023-12-20T11:52:47;100838.41;;;10.28;62.41
28344;BME280;15597;50.914;6.638;2023-12-20T11:55:13;100846.25;;;10.28;62.62
28344;BME280;15597;50.914;6.638;2023-12-20T11:57:39;100849.72;;;10.30;62.46
28344;BME280;15597;50.914;6.638;2023-12-20T12:00:05;100840.09;;;10.32;62.70
28344;BME280;15597;50.914;6.638;2023-12-20T12:02:37;100849.66;;;10.35;62.17
28344;BME280;15597;50.914;6.638;2023-12-20T12:05:03;100840.03;;;10.35;62.37
28344;BME280;15597;50.914;6.638;2023-12-20T12:07:31;100844.38;;;10.36;62.15
28344;BME280;15597;50.914;6.638;2023-12-20T12:09:57;100829.53;;;10.38;62.18
28344;BME280;15597;50.914;6.638;2023-12-20T12:12:23;100828.66;;;10.40;62.00
28344;BME280;15597;50.914;6.638;2023-12-20T12:14:51;100816.44;;;10.38;62.57
28344;BME280;15597;50.914;6.638;2023-12-20T12:17:16;100808.59;;;10.38;62.32
28344;BME280;15597;50.914;6.638;2023-12-20T12:19:42;100816.44;;;10.38;62.10
28344;BME280;15597;50.914;6.638;2023-12-20T12:22:11;100807.72;;;10.41;62.29
28344;BME280;15597;50.914;6.638;2023-12-20T12:24:48;100798.13;;;10.38;62.09
28344;BME280;15597;50.914;6.638;2023-12-20T12:27:15;100796.38;;;10.41;62.18
28344;BME280;15597;50.914;6.638;2023-12-20T12:30:00;100806.00;;;10.40;62.37
28344;BME280;15597;50.914;6.638;2023-12-20T12:32:25;100801.56;;;10.44;62.23
28344;BME280;15597;50.914;6.638;2023-12-20T12:34:51;100802.41;;;10.46;62.64
28344;BME280;15597;50.914;6.638;2023-12-20T12:37:17;100790.22;;;10.45;62.23
28344;BME280;15597;50.914;6.638;2023-12-20T12:39:43;100803.28;;;10.46;62.13
28344;BME280;15597;50.914;6.638;2023-12-20T12:42:08;100798.91;;;10.47;62.42
28344;BME280;15597;50.914;6.638;2023-12-20T12:44:33;100788.41;;;10.48;62.14
28344;BME280;15597;50.914;6.638;2023-12-20T12:46:59;100782.31;;;10.48;62.13
28344;BME280;15597;50.914;6.638;2023-12-20T12:49:25;100785.75;;;10.50;61.88
28344;BME280;15597;50.914;6.638;2023-12-20T12:51:50;100778.84;;;10.46;61.89
28344;BME280;15597;50.914;6.638;2023-12-20T12:54:19;100782.38;;;10.45;62.37
28344;BME280;15597;50.914;6.638;2023-12-20T12:56:45;100770.13;;;10.47;62.51
28344;BME280;15597;50.914;6.638;2023-12-20T12:59:13;100780.59;;;10.47;62.65